Time;durP1;ratioP1;P1;durP2;ratioP2;P2;SDS_P1;SDS_P2;PMS_P1;PMS_P2;Temp;Humidity;BMP_temperature;BMP_pressure;BME280_temperature;BME280_humidity;BME280_pressure;Samples;Min_cycle;Max_cycle;Signal;HPM_P1;HPM_P2
2021/01/09 00:01:26;;;;;;;12.10;5.53;;;-0.10;99.90;;;-1.99;95.29;101741.94;5023313;28;20093;-40
2021/01/09 00:03:53;;;;;;;14.88;5.90;;;0.00;99.90;;;-2.02;95.96;101740.31;5023075;28;20094;-40
2021/01/09 00:06:20;;;;;;;10.65;5.57;;;0.00;99.90;;;-1.99;96.10;101749.09;5023278;28;20050;-40
2021/01/09 00:08:48;;;;;;;11.00;5.10;;;0.00;99.90;;;-1.99;95.63;101744.63;5023453;28;20102;-40
2021/01/09 00:11:15;;;;;;;9.53;5.07;;;0.00;99.90;;;-2.01;95.96;101738.53;5039155;28;20518;-40
2021/01/09 00:13:42;;;;;;;12.88;5.88;;;0.00;99.90;;;-1.98;96.09;101750.84;5055922;28;20072;-40
2021/01/09 00:16:09;;;;;;;13.55;5.90;;;0.00;99.90;;;-1.95;96.34;101751.47;5072333;28;20043;-40
2021/01/09 00:18:37;;;;;;;10.47;5.40;;;0.00;99.90;;;-1.94;96.05;101752.34;5039163;28;20545;-40
2021/01/09 00:21:04;;;;;;;10.60;5.13;;;0.00;99.90;;;-1.91;96.14;101750.28;5022699;28;20465;-40
2021/01/09 00:23:31;;;;;;;11.20;5.85;;;0.10;99.90;;;-1.90;96.19;101745.78;5039020;28;20403;-40
2021/01/09 00:25:59;;;;;;;10.37;5.73;;;0.10;99.90;;;-1.90;96.12;101749.31;5022986;28;20059;-40
2021/01/09 00:28:26;;;;;;;10.52;5.22;;;0.10;99.90;;;-1.91;96.04;101744.94;5055606;28;20040;-40
2021/01/09 00:30:53;;;;;;;13.17;5.80;;;0.10;99.90;;;-1.89;96.09;101748.34;5022660;28;20068;-40
2021/01/09 00:33:20;;;;;;;10.00;5.00;;;0.10;99.90;;;-1.90;96.59;101749.31;5038917;28;20058;-40
2021/01/09 00:35:48;;;;;;;11.23;5.03;;;0.10;99.90;;;-1.92;96.47;101748.56;5072063;28;20091;-40
2021/01/09 00:38:15;;;;;;;10.43;5.43;;;0.10;99.90;;;-1.90;96.34;101752.00;5038947;28;20159;-40
2021/01/09 00:40:42;;;;;;;11.93;5.45;;;0.10;99.90;;;-1.91;96.33;101758.31;5022394;28;20085;-40
2021/01/09 00:43:10;;;;;;;10.93;5.32;;;0.10;99.90;;;-1.88;96.61;101759.91;5038948;28;20075;-40
2021/01/09 00:45:37;;;;;;;10.70;4.82;;;0.10;99.90;;;-1.89;95.96;101755.53;5039159;28;20044;-40
2021/01/09 00:48:05;;;;;;;12.75;5.15;;;0.10;99.90;;;-1.89;96.90;101760.88;5055090;28;20162;-40
2021/01/09 00:50:32;;;;;;;10.77;5.43;;;0.10;99.90;;;-1.82;96.46;101761.31;5071461;28;20048;-40
2021/01/09 00:53:00;;;;;;;10.00;5.03;;;0.10;99.90;;;-1.81;96.83;101765.69;5038803;28;20045;-40
2021/01/09 00:55:27;;;;;;;11.88;5.55;;;0.20;99.90;;;-1.81;96.61;101765.69;5038455;28;20159;-39
2021/01/09 00:57:55;;;;;;;11.25;4.93;;;0.20;99.90;;;-1.81;95.94;101765.69;5022224;28;20469;-40
2021/01/09 01:00:23;;;;;;;9.23;4.95;;;0.20;99.90;;;-1.82;96.76;101767.50;5088191;28;20048;-40
2021/01/09 01:02:50;;;;;;;9.85;5.10;;;0.20;99.90;;;-1.82;96.65;101761.31;5071485;28;20048;-40
2021/01/09 01:05:17;;;;;;;10.60;5.32;;;0.20;99.90;;;-1.83;96.55;101767.63;5071060;28;20048;-40
2021/01/09 01:07:44;;;;;;;10.80;5.53;;;0.20;99.90;;;-1.84;96.36;101765.91;5038510;28;20143;-40
2021/01/09 01:10:13;;;;;;;12.10;5.30;;;0.10;99.90;;;-1.86;96.38;101762.47;5038298;28;20498;-40
2021/01/09 01:12:41;;;;;;;10.27;5.32;;;0.10;99.90;;;-1.85;96.75;101766.88;5054661;28;20127;-40
2021/01/09 01:15:09;;;;;;;;;;;0.10;99.90;;;-1.85;96.67;101774.91;5070986;28;20059;-40
2021/01/09 01:17:37;;;;;;;11.18;5.22;;;0.10;99.90;;;-1.84;96.55;101769.44;5071105;28;20470;-40
2021/01/09 01:20:05;;;;;;;9.63;5.07;;;0.10;99.90;;;-1.82;95.88;101774.69;5022110;28;20523;-40
2021/01/09 01:22:33;;;;;;;10.65;5.20;;;0.10;99.90;;;-1.82;96.35;101780.03;5087724;28;20131;-40
2021/01/09 01:25:00;;;;;;;8.75;5.15;;;0.10;99.90;;;-1.84;96.85;101784.66;5038014;28;20052;-40
2021/01/09 01:27:28;;;;;;;8.18;4.82;;;0.20;99.90;;;-1.83;96.49;101789.03;5070868;28;20045;-40
2021/01/09 01:29:57;;;;;;;9.73;5.10;;;0.10;99.90;;;-1.83;96.81;101794.38;5021990;28;20076;-40
2021/01/09 01:32:24;;;;;;;9.93;5.37;;;0.10;99.90;;;-1.83;96.88;101791.72;5021614;28;20127;-40
2021/01/09 01:34:52;;;;;;;10.15;5.10;;;0.20;99.90;;;-1.83;96.92;101797.91;5053588;28;20056;-40
2021/01/09 01:37:19;;;;;;;12.52;5.13;;;0.20;99.90;;;-1.81;96.73;101803.16;5038142;28;20410;-40
2021/01/09 01:39:46;;;;;;;10.07;5.00;;;0.20;99.90;;;-1.82;96.43;101804.13;5005180;28;20045;-40
2021/01/09 01:42:14;;;;;;;12.03;5.37;;;0.20;99.90;;;-1.84;96.77;101801.53;5037696;28;20469;-40
2021/01/09 01:44:41;;;;;;;7.65;4.55;;;0.10;99.90;;;-1.85;96.32;101804.34;5053774;28;20515;-40
2021/01/09 01:47:22;;;;;;;8.97;4.80;;;0.10;99.90;;;-1.86;96.24;101810.63;5005164;28;20048;-40
2021/01/09 01:49:51;;;;;;;9.32;4.82;;;0.10;99.90;;;-1.86;96.17;101810.63;5070840;28;20141;-40
2021/01/09 01:52:20;;;;;;;10.00;4.70;;;0.20;99.90;;;-1.86;96.37;101822.19;5037421;28;20044;-40
2021/01/09 01:54:48;;;;;;;11.40;5.63;;;0.10;99.90;;;-1.86;95.92;101822.19;5070258;28;20511;-40
2021/01/09 01:57:16;;;;;;;8.07;4.25;;;0.10;99.90;;;-1.85;96.53;101825.75;5037525;28;20573;-40
2021/01/09 01:59:43;;;;;;;11.63;5.50;;;0.20;99.90;;;-1.77;96.36;101831.41;5005439;28;20072;-40
2021/01/09 02:02:13;;;;;;;9.43;4.38;;;0.20;99.90;;;-1.76;96.62;101833.13;5005063;28;20514;-40
2021/01/09 02:04:45;;;;;;;10.32;5.10;;;0.20;99.90;;;-1.76;96.48;101833.97;5037575;28;20044;-40
2021/01/09 02:07:20;;;;;;;8.98;4.47;;;0.20;99.90;;;-1.73;96.63;101846.28;5071064;28;20052;-40
2021/01/09 02:09:53;;;;;;;9.07;4.30;;;0.20;99.90;;;-1.72;96.59;101850.66;5070305;28;20045;-40
2021/01/09 02:12:44;;;;;;;8.52;4.32;;;0.20;99.90;;;-1.71;96.11;101827.47;5053433;28;20499;-40
2021/01/09 02:15:16;;;;;;;10.57;4.85;;;0.20;99.90;;;-1.69;96.10;101837.06;5070058;28;20041;-40
2021/01/09 02:17:46;;;;;;;9.25;4.80;;;0.30;99.90;;;-1.69;96.94;101841.59;5053617;28;20071;-40
2021/01/09 02:20:15;;;;;;;9.85;4.72;;;0.30;99.90;;;-1.69;97.08;101842.44;5053638;28;20485;-40
2021/01/09 02:22:44;;;;;;;9.60;4.70;;;0.30;99.90;;;-1.68;96.86;101844.13;5070337;28;20040;-40
2021/01/09 02:25:13;;;;;;;9.88;4.40;;;0.30;99.90;;;-1.70;96.01;101846.06;5053478;28;20048;-40
2021/01/09 02:27:40;;;;;;;10.23;5.00;;;0.30;99.90;;;-1.69;97.12;101847.78;5053650;28;20040;-40
2021/01/09 02:30:15;;;;;;;11.75;5.22;;;0.30;99.90;;;-1.71;96.77;101854.22;5069966;28;20072;-40
2021/01/09 02:33:04;;;;;;;9.75;4.45;;;0.30;99.90;;;-1.73;97.13;101857.81;5053981;28;20106;-40
2021/01/09 02:35:35;;;;;;;9.68;4.85;;;0.30;99.90;;;-1.73;96.64;101846.28;5053323;28;20410;-40
2021/01/09 02:38:03;;;;;;;10.90;4.78;;;0.20;99.90;;;-1.70;96.61;101855.94;5053438;28;20044;-40
2021/01/09 02:40:39;;;;;;;8.20;4.22;;;0.20;99.90;;;-1.69;96.30;101852.28;5053541;28;20044;-40
2021/01/09 02:43:16;;;;;;;9.27;4.22;;;0.30;99.90;;;-1.69;96.49;101845.09;5070022;28;20045;-40
2021/01/09 02:45:43;;;;;;;9.52;4.60;;;0.30;99.90;;;-1.67;97.13;101835.16;5071189;28;20117;-40
2021/01/09 02:48:11;;;;;;;9.88;5.10;;;0.30;99.90;;;-1.66;96.96;101844.88;5008387;28;20480;-40
2021/01/09 02:50:38;;;;;;;11.38;5.47;;;0.30;99.90;;;-1.66;96.79;101844.88;5040971;28;20525;-40
2021/01/09 02:53:05;;;;;;;7.97;3.70;;;0.30;99.90;;;-1.67;96.69;101845.84;5025046;28;20095;-40
2021/01/09 02:55:33;;;;;;;10.03;4.43;;;0.30;99.90;;;-1.69;96.51;101847.78;5041013;28;20047;-40
2021/01/09 02:58:00;;;;;;;10.63;4.55;;;0.30;99.90;;;-1.66;96.72;101846.72;5040829;28;20040;-40
2021/01/09 03:00:27;;;;;;;8.90;4.47;;;0.30;99.90;;;-1.65;96.54;101857.31;5008125;28;20053;-40
2021/01/09 03:02:55;;;;;;;9.02;4.60;;;0.30;99.90;;;-1.67;97.17;101845.84;5040978;28;20773;-40
2021/01/09 03:05:23;;;;;;;10.45;4.57;;;0.30;99.90;;;-1.68;96.74;101849.50;5024202;28;20597;-40
2021/01/09 03:07:50;;;;;;;8.05;4.40;;;0.30;99.90;;;-1.70;96.83;101853.25;5040940;28;20040;-40
2021/01/09 03:10:17;;;;;;;8.93;4.07;;;0.30;99.90;;;-1.75;96.17;101854.41;5040999;28;20063;-40
2021/01/09 03:12:45;;;;;;;9.27;4.60;;;0.20;99.90;;;-1.78;97.13;101848.44;5024467;28;20532;-40
2021/01/09 03:15:13;;;;;;;8.85;4.47;;;0.20;99.90;;;-1.81;96.70;101849.47;5024121;28;20040;-40
2021/01/09 03:17:41;;;;;;;9.18;4.03;;;0.20;99.90;;;-1.83;97.13;101845.22;5057478;28;20357;-40
2021/01/09 03:20:09;;;;;;;8.35;4.60;;;0.20;99.90;;;-1.88;96.66;101843.69;5040822;28;20041;-40
2021/01/09 03:22:37;;;;;;;8.27;3.88;;;0.10;99.90;;;-1.91;97.19;101843.91;5073199;28;20510;-40
2021/01/09 03:25:06;;;;;;;9.48;4.38;;;0.10;99.90;;;-1.94;96.79;101835.25;5023813;28;20075;-40
2021/01/09 03:27:33;;;;;;;8.35;4.15;;;0.10;99.90;;;-1.98;96.25;101842.63;5073174;28;20048;-40
2021/01/09 03:30:01;;;;;;;7.70;3.80;;;0.00;99.90;;;-2.03;96.26;101839.41;5040374;28;20045;-40
2021/01/09 03:32:28;;;;;;;8.13;3.58;;;0.00;99.90;;;-2.06;96.05;101839.63;5073150;28;20040;-40
2021/01/09 03:34:56;;;;;;;8.05;4.13;;;0.00;99.90;;;-2.08;97.03;101830.84;5040081;28;20052;-40
2021/01/09 03:37:23;;;;;;;9.77;4.78;;;-0.10;99.90;;;-2.08;97.01;101830.84;5023838;28;20040;-40
2021/01/09 03:39:50;;;;;;;9.32;4.45;;;-0.10;99.90;;;-2.09;96.73;101829.97;5023829;28;20045;-40
2021/01/09 03:42:18;;;;;;;8.63;4.03;;;-0.10;99.90;;;-2.10;95.81;101838.13;5040177;28;20040;-40
2021/01/09 03:44:45;;;;;;;8.52;4.65;;;-0.10;99.90;;;-2.11;96.02;101836.41;5023873;28;20068;-39
2021/01/09 03:47:13;;;;;;;9.95;4.25;;;-0.10;99.90;;;-2.14;96.80;101841.94;5023509;28;20132;-40
2021/01/09 03:49:40;;;;;;;7.38;4.05;;;-0.10;99.90;;;-2.16;96.52;101842.06;5023317;28;20044;-40
2021/01/09 03:52:08;;;;;;;10.57;4.80;;;-0.10;99.90;;;-2.13;96.52;101851.69;5023756;28;20059;-40
2021/01/09 03:54:35;;;;;;;9.25;4.30;;;-0.10;99.90;;;-2.16;96.80;101834.03;5039755;28;20047;-40
2021/01/09 03:57:04;;;;;;;9.82;4.50;;;-0.10;99.90;;;-2.10;96.77;101848.81;5022839;28;20055;-40
2021/01/09 03:59:32;;;;;;;11.40;4.88;;;-0.10;99.90;;;-2.14;96.77;101842.81;5056279;28;20465;-40
2021/01/09 04:02:00;;;;;;;9.73;4.78;;;-0.10;99.90;;;-2.13;96.25;101846.34;5023972;28;20041;-40
2021/01/09 04:04:28;;;;;;;10.65;4.63;;;-0.10;99.90;;;-2.21;96.63;101847.72;5039647;28;20048;-40
2021/01/09 04:06:56;;;;;;;8.93;4.68;;;-0.20;99.90;;;-2.32;96.77;101843.09;5072785;28;20071;-40
2021/01/09 04:09:23;;;;;;;9.88;5.00;;;-0.20;99.90;;;-2.31;96.97;101854.66;5056050;28;20135;-40
2021/01/09 04:11:51;;;;;;;11.55;4.68;;;-0.20;99.90;;;-2.39;96.55;101856.97;5023045;28;20545;-40
2021/01/09 04:14:18;;;;;;;7.40;3.75;;;-0.30;99.90;;;-2.48;96.25;101858.47;5023062;28;20071;-40
2021/01/09 04:16:46;;;;;;;10.05;4.32;;;-0.40;99.90;;;-2.54;96.82;101862.38;5006974;28;20056;-40
2021/01/09 04:19:14;;;;;;;8.40;4.30;;;-0.40;99.90;;;-2.57;96.51;101864.38;5056184;28;20273;-40
2021/01/09 04:21:52;;;;;;;8.65;3.92;;;-0.50;99.90;;;-2.59;96.56;101864.50;5022790;28;20529;-40
2021/01/09 04:24:22;;;;;;;7.85;3.88;;;-0.60;99.90;;;-2.62;96.34;101862.03;5055453;28;20465;-40
2021/01/09 04:27:01;;;;;;;10.40;4.13;;;-0.50;99.90;;;-2.60;96.52;101868.13;5055901;28;20044;-40
2021/01/09 04:29:30;;;;;;;8.43;4.50;;;-0.60;99.90;;;-2.58;96.97;101863.53;5072298;28;20041;-40
2021/01/09 04:31:59;;;;;;;8.98;4.32;;;-0.60;99.90;;;-2.58;96.43;101866.22;5038745;28;20465;-40
2021/01/09 04:34:27;;;;;;;8.85;4.30;;;-0.60;99.90;;;-2.53;96.95;101868.56;5073245;28;20044;-40
2021/01/09 04:36:54;;;;;;;10.23;4.32;;;-0.50;99.90;;;-2.51;96.49;101867.53;5072014;28;20387;-40
2021/01/09 04:39:22;;;;;;;8.85;4.35;;;-0.50;99.90;;;-2.46;97.12;101869.91;5022779;28;20040;-40
2021/01/09 04:41:50;;;;;;;;;;;-0.50;99.90;;;-2.39;96.29;101873.00;5055658;28;20146;-40
2021/01/09 04:44:17;;;;;;;10.32;4.82;;;-0.40;99.90;;;-2.35;97.46;101877.22;5055099;28;19920;-40
2021/01/09 04:46:56;;;;;;;8.77;4.25;;;-0.40;99.90;;;-2.31;96.90;101879.56;5038799;28;20053;-40
2021/01/09 04:49:26;;;;;;;;;;;-0.40;99.90;;;-2.27;96.87;101876.66;5055738;28;20067;-40
2021/01/09 04:51:56;;;;;;;9.07;4.20;;;-0.30;99.90;;;-2.24;96.73;101874.66;5054863;28;19924;-40
2021/01/09 04:54:26;;;;;;;10.02;4.50;;;-0.30;99.90;;;-2.21;96.38;101879.81;5071334;28;20118;-40
2021/01/09 04:56:55;;;;;;;8.35;4.22;;;-0.20;99.90;;;-2.16;97.30;101876.84;5054747;28;20044;-40
2021/01/09 04:59:25;;;;;;;8.93;3.92;;;-0.20;99.90;;;-2.12;96.31;101885.47;5071514;28;20083;-40
2021/01/09 05:01:53;;;;;;;8.63;4.38;;;-0.20;99.90;;;-2.09;96.31;101877.28;5071506;28;20118;-40
2021/01/09 05:04:21;;;;;;;8.85;4.30;;;-0.10;99.90;;;-2.04;96.38;101875.16;5054866;28;20127;-40
2021/01/09 05:06:50;;;;;;;8.52;4.00;;;-0.10;99.90;;;-2.01;96.35;101882.97;5054730;28;20098;-40
2021/01/09 05:09:17;;;;;;;10.90;4.75;;;-0.10;99.90;;;-1.98;97.14;101885.41;5054023;28;20078;-40
2021/01/09 05:11:46;;;;;;;10.68;4.72;;;0.00;99.90;;;-1.93;96.26;101893.16;5070846;28;20517;-40
2021/01/09 05:14:15;;;;;;;11.50;5.28;;;0.00;99.90;;;-1.89;96.70;101889.28;5038188;28;20067;-40
2021/01/09 05:16:43;;;;;;;9.93;5.15;;;0.00;99.90;;;-1.86;96.83;101890.88;5038431;28;20139;-40
2021/01/09 05:19:13;;;;;;;9.60;4.38;;;0.10;99.90;;;-1.84;96.34;101892.50;5038856;28;20048;-40
2021/01/09 05:21:43;;;;;;;10.80;4.68;;;0.10;99.90;;;-1.83;96.56;101891.53;5021770;28;20453;-40
2021/01/09 05:24:13;;;;;;;8.98;4.25;;;0.10;99.90;;;-1.82;97.26;101892.41;5054200;28;20040;-40
2021/01/09 05:26:42;;;;;;;9.50;4.53;;;0.10;99.90;;;-1.78;97.44;101899.28;5070998;28;20045;-40
2021/01/09 05:29:10;;;;;;;7.82;4.20;;;0.10;99.90;;;-1.74;96.99;101903.44;5021994;28;20106;-40
2021/01/09 05:31:37;;;;;;;11.13;4.72;;;0.20;99.90;;;-1.71;96.39;101905.06;5054110;28;20131;-40
2021/01/09 05:34:06;;;;;;;7.43;4.03;;;0.20;99.90;;;-1.70;97.32;101904.09;5037570;28;20056;-40
2021/01/09 05:36:34;;;;;;;10.43;4.43;;;0.20;99.90;;;-1.67;97.56;101915.44;5072034;28;20514;-40
2021/01/09 05:39:04;;;;;;;8.27;4.97;;;0.30;99.90;;;-1.65;96.80;101918.84;5038003;28;20040;-40
2021/01/09 05:41:33;;;;;;;9.70;4.85;;;0.30;99.90;;;-1.63;97.07;101926.78;5054663;28;20055;-40
2021/01/09 05:44:05;;;;;;;9.63;4.20;;;0.30;99.90;;;-1.61;96.70;101924.88;5037517;28;20063;-40
2021/01/09 05:46:36;;;;;;;8.65;4.35;;;0.30;99.90;;;-1.61;97.23;101920.34;5037549;28;20511;-40
2021/01/09 05:49:06;;;;;;;10.73;4.53;;;0.40;99.90;;;-1.58;97.47;101921.13;5054171;28;20425;-40
2021/01/09 05:54:13;;;;;;;10.73;4.15;;;0.40;99.90;;;-1.53;97.57;101924.34;5038632;28;20044;-40
2021/01/09 05:56:40;;;;;;;10.57;4.97;;;0.40;99.90;;;-1.51;97.02;101927.78;5053965;28;20039;-40
2021/01/09 05:59:10;;;;;;;11.93;5.25;;;0.40;99.90;;;-1.52;96.88;101915.34;5054463;28;20148;-40
2021/01/09 06:01:43;;;;;;;10.88;4.80;;;0.40;99.90;;;-1.49;97.19;101932.03;5070540;28;20079;-40
2021/01/09 06:04:27;;;;;;;9.43;4.57;;;0.50;99.90;;;-1.47;96.59;101932.78;5070369;28;20041;-40
2021/01/09 06:07:04;;;;;;;9.43;4.45;;;0.50;99.90;;;-1.47;96.85;101931.94;5087263;28;20048;-40
2021/01/09 06:09:39;;;;;;;11.82;4.60;;;0.40;99.90;;;-1.48;96.86;101939.09;5070485;28;20046;-40
2021/01/09 06:12:11;;;;;;;9.00;4.43;;;0.40;99.90;;;-1.45;97.44;101938.06;5036955;28;20040;-40
2021/01/09 06:14:44;;;;;;;8.90;4.47;;;0.50;99.90;;;-1.46;97.38;101929.19;5053395;28;20048;-40
2021/01/09 06:17:17;;;;;;;8.73;4.85;;;0.50;99.90;;;-1.43;96.87;101930.75;5071509;28;20040;-40
2021/01/09 06:19:47;;;;;;;9.85;4.43;;;0.50;99.90;;;-1.43;97.47;101938.78;5069955;28;20457;-40
2021/01/09 06:22:15;;;;;;;9.75;4.68;;;0.50;99.90;;;-1.40;97.51;101941.25;5070420;28;20070;-40
2021/01/09 06:24:43;;;;;;;10.73;4.78;;;0.50;99.90;;;-1.40;97.12;101935.91;5069927;28;20071;-40
2021/01/09 06:27:24;;;;;;;10.82;5.07;;;0.50;99.90;;;-1.40;97.02;101941.25;5070413;28;20044;-40
2021/01/09 06:30:00;;;;;;;9.32;4.88;;;0.50;99.90;;;-1.39;97.16;101940.28;5070102;28;20053;-40
2021/01/09 06:32:37;;;;;;;8.20;4.60;;;0.60;99.90;;;-1.32;97.43;101948.75;5070133;28;20469;-40
2021/01/09 06:35:09;;;;;;;8.93;4.72;;;0.60;99.90;;;-1.34;96.95;101942.66;5071176;28;20053;-40
2021/01/09 06:37:39;;;;;;;8.90;5.28;;;0.60;99.90;;;-1.34;96.83;101953.38;5053355;28;20041;-40
2021/01/09 06:40:09;;;;;;;9.07;4.63;;;0.60;99.90;;;-1.37;96.80;101943.72;5086697;28;20533;-40
2021/01/09 06:42:41;;;;;;;9.57;4.93;;;0.60;99.90;;;-1.36;97.31;101956.13;5037102;28;20465;-40
2021/01/09 06:45:11;;;;;;;8.90;4.75;;;0.60;99.90;;;-1.36;97.46;101956.13;5086782;28;20049;-41
2021/01/09 06:47:38;;;;;;;9.73;4.82;;;0.60;99.90;;;-1.32;97.56;101957.66;5053357;28;20510;-40
2021/01/09 06:50:25;;;;;;;10.32;4.70;;;0.60;99.90;;;-1.31;97.54;101958.50;5053397;28;20568;-40
2021/01/09 06:52:55;;;;;;;11.27;5.30;;;0.60;99.90;;;-1.25;96.95;101957.22;5086913;28;20059;-40
2021/01/09 06:55:42;;;;;;;12.35;5.78;;;0.70;99.90;;;-1.26;97.35;101956.38;5070175;28;20056;-40
2021/01/09 06:58:14;;;;;;;11.80;5.35;;;0.60;99.90;;;-1.27;97.42;101951.13;5086910;28;20143;-40
2021/01/09 07:00:41;;;;;;;12.18;5.57;;;0.70;99.90;;;-1.25;97.04;101962.59;5070023;28;20106;-40
2021/01/09 07:03:13;;;;;;;14.13;6.47;;;0.70;99.90;;;-1.26;97.40;101955.53;5020802;28;20102;-40
2021/01/09 07:05:52;;;;;;;11.90;5.82;;;0.70;99.90;;;-1.25;96.64;101957.22;5086856;28;20094;-40
2021/01/09 07:08:30;;;;;;;15.50;6.43;;;0.70;99.90;;;-1.22;97.51;101967.72;5069821;28;20063;-40
2021/01/09 07:11:02;;;;;;;12.25;5.88;;;0.70;99.90;;;-1.25;97.11;101976.81;5052396;28;20041;-40
2021/01/09 07:13:32;;;;;;;14.07;6.47;;;0.70;99.90;;;-1.25;97.59;101979.50;5052994;28;20279;-41
2021/01/09 07:16:12;;;;;;;14.38;6.35;;;0.70;99.90;;;-1.23;96.73;101976.72;5070029;28;20068;-40
2021/01/09 07:18:49;;;;;;;15.02;6.57;;;0.70;99.90;;;-1.22;97.01;101973.94;5069734;28;20049;-40
2021/01/09 07:21:20;;;;;;;13.90;6.53;;;0.70;99.90;;;-1.19;97.51;101978.22;5069457;28;20087;-40
2021/01/09 07:24:00;;;;;;;17.83;7.65;;;0.70;99.90;;;-1.20;97.34;101979.19;5086407;28;20124;-40
2021/01/09 07:26:28;;;;;;;15.95;7.22;;;0.70;99.90;;;-1.21;97.43;101982.84;5069720;28;20049;-40
2021/01/09 07:28:56;;;;;;;17.13;7.07;;;0.70;99.90;;;-1.22;96.85;101978.44;5071006;28;20119;-40
2021/01/09 07:31:28;;;;;;;16.40;7.22;;;0.70;99.90;;;-1.17;97.50;101978.97;5069972;28;20045;-40
2021/01/09 07:33:59;;;;;;;18.50;7.38;;;0.70;99.90;;;-1.17;96.79;101984.34;5072821;28;20040;-40
2021/01/09 07:36:31;;;;;;;15.65;6.72;;;0.80;99.90;;;-1.17;97.35;101987.00;5074348;28;20511;-40
2021/01/09 07:39:04;;;;;;;13.30;6.47;;;0.80;99.90;;;-1.16;97.42;101991.41;5056456;28;20041;-40
2021/01/09 07:41:36;;;;;;;18.40;7.47;;;0.80;99.90;;;-1.11;96.64;101989.25;5072966;28;20074;-40
2021/01/09 07:44:14;;;;;;;14.38;6.72;;;0.80;99.90;;;-1.08;97.34;101991.72;5089711;28;20048;-40
2021/01/09 07:47:05;;;;;;;16.90;7.38;;;0.80;99.90;;;-1.05;97.17;101999.56;5056804;28;20060;-40
2021/01/09 07:49:36;;;;;;;21.40;8.10;;;0.80;99.90;;;-1.01;96.89;102000.19;5057065;28;20041;-40
2021/01/09 07:52:08;;;;;;;18.00;7.55;;;0.80;99.90;;;-1.02;96.30;101996.66;5072855;28;20123;-40
2021/01/09 07:54:48;;;;;;;18.92;7.60;;;0.90;99.90;;;-1.05;96.38;102002.25;5072595;28;20037;-40
2021/01/09 07:57:25;;;;;;;17.05;6.57;;;0.90;99.90;;;-1.06;96.51;102000.53;5072795;28;20098;-40
2021/01/09 08:00:05;;;;;;;16.15;6.63;;;0.80;99.90;;;-1.06;97.14;102010.38;5039858;28;20049;-40
2021/01/09 08:02:37;;;;;;;19.10;7.00;;;0.80;99.90;;;-1.05;97.06;102009.41;5073194;28;20120;-40
2021/01/09 08:05:20;;;;;;;18.10;7.32;;;0.80;99.90;;;-1.03;96.92;102008.34;5056400;28;20041;-40
2021/01/09 08:07:55;;;;;;;19.77;7.35;;;0.90;99.90;;;-0.99;97.05;102008.13;5056689;28;20507;-40
2021/01/09 08:10:27;;;;;;;22.08;7.82;;;0.90;99.90;;;-0.98;97.02;102008.00;5073096;28;20485;-39
2021/01/09 08:12:59;;;;;;;19.05;8.23;;;0.90;99.90;;;-0.90;97.09;102005.66;5072105;28;20044;-40
2021/01/09 08:15:30;;;;;;;19.30;7.78;;;1.00;99.90;;;-0.88;96.66;102009.09;5072243;28;20037;-40
2021/01/09 08:18:07;;;;;;;27.23;8.20;;;1.00;99.90;;;-0.92;96.41;102028.16;5073609;28;20047;-40
2021/01/09 08:20:35;;;;;;;17.35;7.03;;;1.00;99.90;;;-0.92;96.93;102023.69;5072169;28;20037;-40
2021/01/09 08:23:07;;;;;;;23.02;7.63;;;1.00;99.90;;;-0.87;96.51;102031.38;5072359;28;20056;-40
2021/01/09 08:25:38;;;;;;;19.83;7.35;;;1.00;99.90;;;-0.88;96.86;102035.00;5073270;28;20060;-40
2021/01/09 08:28:06;;;;;;;29.25;7.80;;;1.00;99.90;;;-0.84;96.86;102024.94;5089311;28;20128;-40
2021/01/09 08:30:35;;;;;;;;;;;1.10;99.90;;;-0.83;96.38;102042.75;5072563;28;20032;-40
2021/01/09 08:33:07;;;;;;;19.83;6.73;;;1.10;99.90;;;-0.81;96.97;102044.34;5072111;28;19924;-40
2021/01/09 08:35:37;;;;;;;28.80;8.30;;;1.10;99.90;;;-0.81;96.43;102041.66;5073089;28;20097;-40
2021/01/09 08:38:05;;;;;;;24.10;8.65;;;1.10;99.90;;;-0.79;96.28;102042.44;5073091;28;20135;-40
2021/01/09 08:40:33;;;;;;;28.48;8.88;;;1.10;99.90;;;-0.77;96.76;102045.84;5071858;28;20079;-40
2021/01/09 08:43:08;;;;;;;37.03;10.57;;;1.10;99.90;;;-0.71;96.44;102055.28;5071882;28;20514;-40
2021/01/09 08:45:38;;;;;;;47.72;12.65;;;1.20;99.90;;;-0.64;96.97;102056.56;5088459;28;20094;-40
2021/01/09 08:48:13;;;;;;;56.42;13.43;;;1.20;99.90;;;-0.59;96.32;102062.47;5055724;28;20531;-40
2021/01/09 08:50:47;;;;;;;41.70;12.65;;;1.20;99.90;;;-0.53;96.82;102054.94;5071597;28;20052;-40
2021/01/09 08:53:17;;;;;;;50.60;13.00;;;1.30;99.90;;;-0.47;96.56;102059.84;5088347;28;20045;-40
2021/01/09 08:55:45;;;;;;;51.55;13.90;;;1.40;99.90;;;-0.42;96.54;102060.38;5071600;28;20064;-40
2021/01/09 08:58:15;;;;;;;50.55;14.15;;;1.40;99.90;;;-0.39;96.29;102072.72;5055184;28;20554;-40
2021/01/09 09:00:43;;;;;;;45.03;13.88;;;1.40;99.90;;;-0.38;96.42;102067.25;5071456;28;20064;-40
2021/01/09 09:03:13;;;;;;;46.55;14.00;;;1.40;99.90;;;-0.36;96.48;102067.13;5054857;28;20041;-40
2021/01/09 09:05:42;;;;;;;46.13;13.30;;;1.40;99.90;;;-0.37;96.69;102074.34;5071550;28;20115;-40
2021/01/09 09:08:15;;;;;;;49.83;13.32;;;1.50;99.90;;;-0.36;96.36;102077.88;5071340;28;20037;-40
2021/01/09 09:10:47;;;;;;;45.45;12.50;;;1.50;99.90;;;-0.35;96.02;102072.41;5071154;28;20044;-40
2021/01/09 09:13:18;;;;;;;38.70;12.13;;;1.50;99.90;;;-0.31;96.25;102078.38;5087694;28;20128;-40
2021/01/09 09:15:47;;;;;;;39.30;12.00;;;1.50;99.90;;;-0.25;95.92;102077.97;5072659;28;20064;-40
2021/01/09 09:18:15;;;;;;;34.65;10.80;;;1.60;99.90;;;-0.26;96.15;102078.94;5071189;28;20086;-40
2021/01/09 09:20:52;;;;;;;27.65;9.85;;;1.60;99.90;;;-0.27;95.75;102082.56;5021669;28;20067;-40
2021/01/09 09:23:21;;;;;;;26.10;9.60;;;1.60;99.90;;;-0.28;95.85;102090.72;5072227;28;20115;-42
2021/01/09 09:26:09;;;;;;;26.20;8.50;;;1.50;99.90;;;-0.26;96.04;102092.34;5039247;28;20128;-40
2021/01/09 09:28:50;;;;;;;22.08;7.93;;;1.60;99.90;;;-0.23;95.94;102088.56;5087901;28;20052;-40
2021/01/09 09:31:21;;;;;;;26.85;9.80;;;1.60;99.90;;;-0.20;96.09;102097.28;5070795;28;20064;-40
2021/01/09 09:34:09;;;;;;;27.92;8.73;;;1.60;99.90;;;-0.12;95.95;102101.22;5054490;28;20037;-40
2021/01/09 09:36:39;;;;;;;27.58;9.25;;;1.70;99.90;;;-0.12;95.60;102099.41;5072277;28;20121;-40
2021/01/09 09:39:19;;;;;;;25.15;9.45;;;1.70;99.90;;;-0.08;95.78;102098.22;5072146;28;20473;-40
2021/01/09 09:41:59;;;;;;;24.20;8.75;;;1.70;99.90;;;-0.08;95.30;102105.38;5070694;28;20048;-40
2021/01/09 09:44:45;;;;;;;26.15;9.00;;;1.70;99.90;;;-0.08;95.70;102108.06;5070493;28;20045;-40
2021/01/09 09:47:26;;;;;;;23.80;9.60;;;1.70;99.90;;;-0.05;95.74;102107.84;5071188;28;20687;-40
2021/01/09 09:50:12;;;;;;;25.10;8.95;;;1.70;99.90;;;-0.04;95.23;102107.75;5070605;28;20049;-40
2021/01/09 09:52:40;;;;;;;28.10;9.50;;;1.80;99.90;;;-0.01;95.05;102110.22;5071802;28;20124;-40
2021/01/09 09:55:09;;;;;;;22.87;9.33;;;1.80;99.90;;;-0.01;95.41;102109.34;5069956;28;20055;-40
2021/01/09 09:57:36;;;;;;;33.17;9.68;;;1.80;99.90;;;0.03;95.00;102110.84;5087438;28;20438;-40
2021/01/09 10:00:09;;;;;;;26.80;9.20;;;1.80;99.90;;;0.04;95.49;102106.31;5037505;28;20074;-40
2021/01/09 10:02:56;;;;;;;26.90;9.70;;;1.90;99.90;;;0.10;95.53;102104.06;5055557;28;20441;-40
2021/01/09 10:05:25;;;;;;;28.88;9.77;;;1.90;99.90;;;0.12;94.85;102103.94;5087254;28;20461;-40
2021/01/09 10:08:13;;;;;;;32.22;10.10;;;1.90;99.90;;;0.20;94.73;102111.44;5054225;28;20079;-40
2021/01/09 10:10:43;;;;;;;32.53;10.27;;;2.00;99.90;;;0.23;94.75;102108.50;5071689;28;20044;-40
2021/01/09 10:13:10;;;;;;;35.67;11.35;;;2.00;99.90;;;0.23;94.48;102113.88;5053627;28;20041;-40
2021/01/09 10:15:37;;;;;;;35.75;10.82;;;2.00;99.90;;;0.27;94.14;102116.25;5037113;28;20060;-40
2021/01/09 10:18:05;;;;;;;27.98;10.30;;;2.10;99.90;;;0.27;94.01;102110.03;5020925;28;20052;-40
2021/01/09 10:20:32;;;;;;;32.43;10.77;;;2.10;99.90;;;0.26;93.52;102119.03;5020947;28;20047;-40
2021/01/09 10:22:59;;;;;;;27.20;10.35;;;2.10;99.90;;;0.32;93.73;102110.53;5070538;28;20465;-40
2021/01/09 10:25:26;;;;;;;31.30;10.27;;;2.10;99.90;;;0.33;93.58;102112.25;5053492;28;20469;-40
2021/01/09 10:27:53;;;;;;;34.03;10.02;;;2.10;99.90;;;0.32;93.38;102110.53;5053454;28;20407;-40
2021/01/09 10:30:21;;;;;;;31.45;10.73;;;2.10;99.90;;;0.35;93.41;102113.00;5070141;28;20075;-40
2021/01/09 10:32:49;;;;;;;33.80;11.40;;;2.10;99.90;;;0.38;93.59;102111.88;5037435;28;20044;-40